sensor_id;sensor_type;location;lat;lon;timestamp;temperature;humidity
32749;DHT22;19119;52.474;13.710;2023-03-01T00:01:26;-3.20;99.90
32749;DHT22;19119;52.474;13.710;2023-03-01T00:03:53;-3.30;99.90
32749;DHT22;19119;52.474;13.710;2023-03-01T00:06:19;-3.30;99.90
32749;DHT22;19119;52.474;13.710;2023-03-01T00:08:45;-3.30;99.90
32749;DHT22;19119;52.474;13.710;2023-03-01T00:13:47;-3.30;99.90
32749;DHT22;19119;52.474;13.710;2023-03-01T00:16:16;-3.30;99.90
32749;DHT22;19119;52.474;13.710;2023-03-01T00:18:42;-3.40;99.90
32749;DHT22;19119;52.474;13.710;2023-03-01T00:21:11;-3.30;99.90
32749;DHT22;19119;52.474;13.710;2023-03-01T00:23:37;-3.40;99.90
32749;DHT22;19119;52.474;13.710;2023-03-01T00:26:10;-3.40;99.90
32749;DHT22;19119;52.474;13.710;2023-03-01T00:28:36;-3.40;99.90
32749;DHT22;19119;52.474;13.710;2023-03-01T00:31:11;-3.40;99.90
32749;DHT22;19119;52.474;13.710;2023-03-01T00:33:38;-3.40;99.90
32749;DHT22;19119;52.474;13.710;2023-03-01T00:36:04;-3.40;99.90
32749;DHT22;19119;52.474;13.710;2023-03-01T00:38:29;-3.50;99.90
32749;DHT22;19119;52.474;13.710;2023-03-01T00:40:55;-3.50;99.90
32749;DHT22;19119;52.474;13.710;2023-03-01T00:43:24;-3.60;99.90
32749;DHT22;19119;52.474;13.710;2023-03-01T00:45:49;-3.60;99.90
32749;DHT22;19119;52.474;13.710;2023-03-01T00:48:15;-3.60;99.90
32749;DHT22;19119;52.474;13.710;2023-03-01T00:50:40;-3.70;99.90
32749;DHT22;19119;52.474;13.710;2023-03-01T00:53:09;-3.60;99.90
32749;DHT22;19119;52.474;13.710;2023-03-01T00:55:36;-3.70;99.90
32749;DHT22;19119;52.474;13.710;2023-03-01T00:58:01;-3.80;99.90
32749;DHT22;19119;52.474;13.710;2023-03-01T01:00:27;-3.70;99.90
32749;DHT22;19119;52.474;13.710;2023-03-01T01:02:53;-3.70;99.90
32749;DHT22;19119;52.474;13.710;2023-03-01T01:05:18;-3.70;99.90
32749;DHT22;19119;52.474;13.710;2023-03-01T01:07:46;-3.70;99.90
32749;DHT22;19119;52.474;13.710;2023-03-01T01:10:12;-3.70;99.90
32749;DHT22;19119;52.474;13.710;2023-03-01T01:12:43;-3.70;99.90
32749;DHT22;19119;52.474;13.710;2023-03-01T01:15:08;-3.70;99.90
32749;DHT22;19119;52.474;13.710;2023-03-01T01:17:34;-3.70;99.90
32749;DHT22;19119;52.474;13.710;2023-03-01T01:19:59;-3.80;99.90
32749;DHT22;19119;52.474;13.710;2023-03-01T01:22:25;-3.80;99.90
32749;DHT22;19119;52.474;13.710;2023-03-01T01:24:50;-3.80;99.90
32749;DHT22;19119;52.474;13.710;2023-03-01T01:27:18;-3.90;99.90
32749;DHT22;19119;52.474;13.710;2023-03-01T01:29:44;-3.90;99.90
32749;DHT22;19119;52.474;13.710;2023-03-01T01:32:09;-3.90;99.90
32749;DHT22;19119;52.474;13.710;2023-03-01T01:34:35;-3.90;99.90
32749;DHT22;19119;52.474;13.710;2023-03-01T01:37:00;-4.00;99.90
32749;DHT22;19119;52.474;13.710;2023-03-01T01:39:30;-4.00;99.90
32749;DHT22;19119;52.474;13.710;2023-03-01T01:41:56;-4.00;99.90
32749;DHT22;19119;52.474;13.710;2023-03-01T01:44:25;-4.00;99.90
32749;DHT22;19119;52.474;13.710;2023-03-01T01:49:36;-3.90;99.90
32749;DHT22;19119;52.474;13.710;2023-03-01T01:54:29;-4.00;99.90
32749;DHT22;19119;52.474;13.710;2023-03-01T01:57:02;-4.00;99.90
32749;DHT22;19119;52.474;13.710;2023-03-01T01:59:28;-4.00;99.90
32749;DHT22;19119;52.474;13.710;2023-03-01T02:01:55;-4.00;99.90
32749;DHT22;19119;52.474;13.710;2023-03-01T02:04:23;-4.00;99.90
32749;DHT22;19119;52.474;13.710;2023-03-01T02:06:53;-4.00;99.90
32749;DHT22;19119;52.474;13.710;2023-03-01T02:09:21;-4.20;99.90
32749;DHT22;19119;52.474;13.710;2023-03-01T02:11:47;-4.10;99.90
32749;DHT22;19119;52.474;13.710;2023-03-01T02:14:14;-4.00;99.90
32749;DHT22;19119;52.474;13.710;2023-03-01T02:16:39;-4.20;99.90
32749;DHT22;19119;52.474;13.710;2023-03-01T02:19:06;-4.20;99.90
32749;DHT22;19119;52.474;13.710;2023-03-01T02:24:28;-4.20;99.90
32749;DHT22;19119;52.474;13.710;2023-03-01T02:26:50;-4.20;99.90
32749;DHT22;19119;52.474;13.710;2023-03-01T02:29:20;-4.30;99.90
32749;DHT22;19119;52.474;13.710;2023-03-01T02:31:46;-4.30;99.90
32749;DHT22;19119;52.474;13.710;2023-03-01T02:34:13;-4.30;99.90
32749;DHT22;19119;52.474;13.710;2023-03-01T02:36:40;-4.30;99.90
32749;DHT22;19119;52.474;13.710;2023-03-01T02:39:07;-4.30;99.90
32749;DHT22;19119;52.474;13.710;2023-03-01T02:41:40;-4.30;99.90
32749;DHT22;19119;52.474;13.710;2023-03-01T02:44:06;-4.30;99.90
32749;DHT22;19119;52.474;13.710;2023-03-01T02:46:32;-4.30;99.90
32749;DHT22;19119;52.474;13.710;2023-03-01T02:48:57;-4.30;99.90
32749;DHT22;19119;52.474;13.710;2023-03-01T02:56:32;-4.40;99.90
32749;DHT22;19119;52.474;13.710;2023-03-01T02:58:58;-4.40;99.90
32749;DHT22;19119;52.474;13.710;2023-03-01T03:01:26;-4.40;99.90
32749;DHT22;19119;52.474;13.710;2023-03-01T03:04:02;-4.40;99.90
32749;DHT22;19119;52.474;13.710;2023-03-01T03:06:28;-4.50;99.90
32749;DHT22;19119;52.474;13.710;2023-03-01T03:08:54;-4.50;99.90
32749;DHT22;19119;52.474;13.710;2023-03-01T03:11:20;-4.50;99.90
32749;DHT22;19119;52.474;13.710;2023-03-01T03:13:46;-4.60;99.90
32749;DHT22;19119;52.474;13.710;2023-03-01T03:16:13;-4.60;99.90
32749;DHT22;19119;52.474;13.710;2023-03-01T03:18:39;-4.60;99.90
32749;DHT22;19119;52.474;13.710;2023-03-01T03:21:18;-4.60;99.90
32749;DHT22;19119;52.474;13.710;2023-03-01T03:23:43;-4.70;99.90
32749;DHT22;19119;52.474;13.710;2023-03-01T03:26:09;-4.70;99.90
32749;DHT22;19119;52.474;13.710;2023-03-01T03:28:38;-4.70;99.90
32749;DHT22;19119;52.474;13.710;2023-03-01T03:31:05;-4.70;99.90
32749;DHT22;19119;52.474;13.710;2023-03-01T03:33:34;-4.70;99.90
32749;DHT22;19119;52.474;13.710;2023-03-01T03:36:00;-4.70;99.90
32749;DHT22;19119;52.474;13.710;2023-03-01T03:38:25;-4.80;99.90
32749;DHT22;19119;52.474;13.710;2023-03-01T03:40:54;-4.80;99.90
32749;DHT22;19119;52.474;13.710;2023-03-01T03:43:26;-4.80;99.90
32749;DHT22;19119;52.474;13.710;2023-03-01T03:45:51;-4.80;99.90
32749;DHT22;19119;52.474;13.710;2023-03-01T03:48:17;-4.80;99.90
32749;DHT22;19119;52.474;13.710;2023-03-01T03:50:46;-4.70;99.90
32749;DHT22;19119;52.474;13.710;2023-03-01T03:53:12;-4.80;99.90
32749;DHT22;19119;52.474;13.710;2023-03-01T03:55:38;-4.80;99.90
32749;DHT22;19119;52.474;13.710;2023-03-01T03:58:07;-4.80;99.90
32749;DHT22;19119;52.474;13.710;2023-03-01T04:00:33;-4.80;99.90
32749;DHT22;19119;52.474;13.710;2023-03-01T04:02:59;-4.80;99.90
32749;DHT22;19119;52.474;13.710;2023-03-01T04:05:26;-4.80;99.90
32749;DHT22;19119;52.474;13.710;2023-03-01T04:07:51;-4.80;99.90
32749;DHT22;19119;52.474;13.710;2023-03-01T04:10:27;-4.80;99.90
32749;DHT22;19119;52.474;13.710;2023-03-01T04:12:52;-4.80;99.90
32749;DHT22;19119;52.474;13.710;2023-03-01T04:15:18;-4.90;99.90
32749;DHT22;19119;52.474;13.710;2023-03-01T04:17:47;-4.80;99.90
32749;DHT22;19119;52.474;13.710;2023-03-01T04:20:13;-4.90;99.90
32749;DHT22;19119;52.474;13.710;2023-03-01T04:22:39;-5.00;99.90
32749;DHT22;19119;52.474;13.710;2023-03-01T04:25:05;-5.00;99.90
32749;DHT22;19119;52.474;13.710;2023-03-01T04:27:35;-5.00;99.90
32749;DHT22;19119;52.474;13.710;2023-03-01T04:30:02;-5.10;99.90
32749;DHT22;19119;52.474;13.710;2023-03-01T04:32:27;-5.10;99.90
32749;DHT22;19119;52.474;13.710;2023-03-01T04:34:53;-5.10;99.90
32749;DHT22;19119;52.474;13.710;2023-03-01T04:37:18;-5.10;99.90
32749;DHT22;19119;52.474;13.710;2023-03-01T04:39:47;-5.10;99.90
32749;DHT22;19119;52.474;13.710;2023-03-01T04:42:13;-5.20;99.90
32749;DHT22;19119;52.474;13.710;2023-03-01T04:44:39;-5.10;99.90
32749;DHT22;19119;52.474;13.710;2023-03-01T04:47:04;-5.10;99.90
32749;DHT22;19119;52.474;13.710;2023-03-01T04:49:33;-5.20;99.90
32749;DHT22;19119;52.474;13.710;2023-03-01T04:51:58;-5.30;99.90
32749;DHT22;19119;52.474;13.710;2023-03-01T04:54:27;-5.20;99.90
32749;DHT22;19119;52.474;13.710;2023-03-01T04:56:53;-5.20;99.90
32749;DHT22;19119;52.474;13.710;2023-03-01T04:59:18;-5.20;99.90
32749;DHT22;19119;52.474;13.710;2023-03-01T05:01:51;-5.10;99.90
32749;DHT22;19119;52.474;13.710;2023-03-01T05:04:17;-5.20;99.90
32749;DHT22;19119;52.474;13.710;2023-03-01T05:06:42;-5.20;99.90
32749;DHT22;19119;52.474;13.710;2023-03-01T05:09:08;-5.20;99.90
32749;DHT22;19119;52.474;13.710;2023-03-01T05:11:34;-5.20;99.90
32749;DHT22;19119;52.474;13.710;2023-03-01T05:14:04;-5.20;99.90
32749;DHT22;19119;52.474;13.710;2023-03-01T05:16:30;-5.20;99.90
32749;DHT22;19119;52.474;13.710;2023-03-01T05:18:57;-5.30;99.90
32749;DHT22;19119;52.474;13.710;2023-03-01T05:21:22;-5.30;99.90
32749;DHT22;19119;52.474;13.710;2023-03-01T05:23:51;-5.30;99.90
32749;DHT22;19119;52.474;13.710;2023-03-01T05:26:18;-5.30;99.90
32749;DHT22;19119;52.474;13.710;2023-03-01T05:28:44;-5.20;99.90
32749;DHT22;19119;52.474;13.710;2023-03-01T05:31:09;-5.30;99.90
32749;DHT22;19119;52.474;13.710;2023-03-01T05:33:35;-5.30;99.90
32749;DHT22;19119;52.474;13.710;2023-03-01T05:36:01;-5.30;99.90
32749;DHT22;19119;52.474;13.710;2023-03-01T05:38:26;-5.20;99.90
32749;DHT22;19119;52.474;13.710;2023-03-01T05:40:52;-5.30;99.90
32749;DHT22;19119;52.474;13.710;2023-03-01T05:43:17;-5.30;99.90
32749;DHT22;19119;52.474;13.710;2023-03-01T05:45:43;-5.30;99.90
32749;DHT22;19119;52.474;13.710;2023-03-01T05:48:09;-5.30;99.90
32749;DHT22;19119;52.474;13.710;2023-03-01T05:50:36;-5.30;99.90
32749;DHT22;19119;52.474;13.710;2023-03-01T05:53:06;-5.40;99.90
32749;DHT22;19119;52.474;13.710;2023-03-01T05:55:33;-5.40;99.90
32749;DHT22;19119;52.474;13.710;2023-03-01T05:57:59;-5.40;99.90
32749;DHT22;19119;52.474;13.710;2023-03-01T06:00:25;-5.40;99.90
32749;DHT22;19119;52.474;13.710;2023-03-01T06:02:51;-5.30;99.90
32749;DHT22;19119;52.474;13.710;2023-03-01T06:05:18;-5.40;99.90
32749;DHT22;19119;52.474;13.710;2023-03-01T06:07:46;-5.30;99.90
32749;DHT22;19119;52.474;13.710;2023-03-01T06:10:12;-5.30;99.90
32749;DHT22;19119;52.474;13.710;2023-03-01T06:12:38;-5.30;99.90
32749;DHT22;19119;52.474;13.710;2023-03-01T06:15:04;-5.20;99.90
32749;DHT22;19119;52.474;13.710;2023-03-01T06:17:31;-5.20;99.90
32749;DHT22;19119;52.474;13.710;2023-03-01T06:19:57;-5.20;99.90
32749;DHT22;19119;52.474;13.710;2023-03-01T06:22:23;-5.20;99.90
32749;DHT22;19119;52.474;13.710;2023-03-01T06:24:48;-5.10;99.90
32749;DHT22;19119;52.474;13.710;2023-03-01T06:27:14;-5.10;99.90
32749;DHT22;19119;52.474;13.710;2023-03-01T06:29:42;-5.00;99.90
32749;DHT22;19119;52.474;13.710;2023-03-01T06:32:08;-5.00;99.90
32749;DHT22;19119;52.474;13.710;2023-03-01T06:34:33;-4.90;99.90
32749;DHT22;19119;52.474;13.710;2023-03-01T06:36:59;-4.80;99.90
32749;DHT22;19119;52.474;13.710;2023-03-01T06:39:24;-4.80;99.90
32749;DHT22;19119;52.474;13.710;2023-03-01T06:41:50;-4.70;99.90
32749;DHT22;19119;52.474;13.710;2023-03-01T06:44:15;-4.70;99.90
32749;DHT22;19119;52.474;13.710;2023-03-01T06:46:41;-4.60;99.90
32749;DHT22;19119;52.474;13.710;2023-03-01T06:49:09;-4.50;99.90
32749;DHT22;19119;52.474;13.710;2023-03-01T06:51:35;-4.40;99.90
32749;DHT22;19119;52.474;13.710;2023-03-01T06:54:02;-4.30;99.90
32749;DHT22;19119;52.474;13.710;2023-03-01T06:56:28;-4.10;99.90
32749;DHT22;19119;52.474;13.710;2023-03-01T06:58:53;-4.00;99.90
32749;DHT22;19119;52.474;13.710;2023-03-01T07:01:19;-3.90;99.90
32749;DHT22;19119;52.474;13.710;2023-03-01T07:03:47;-3.70;99.90
32749;DHT22;19119;52.474;13.710;2023-03-01T07:06:12;-3.60;99.90
32749;DHT22;19119;52.474;13.710;2023-03-01T07:08:38;-3.40;99.90
32749;DHT22;19119;52.474;13.710;2023-03-01T07:11:03;-3.20;99.90
32749;DHT22;19119;52.474;13.710;2023-03-01T07:13:29;-3.10;99.90
32749;DHT22;19119;52.474;13.710;2023-03-01T07:15:55;-3.00;99.90
32749;DHT22;19119;52.474;13.710;2023-03-01T07:18:20;-2.80;99.90
32749;DHT22;19119;52.474;13.710;2023-03-01T07:20:46;-2.70;99.90
32749;DHT22;19119;52.474;13.710;2023-03-01T07:23:11;-2.60;99.90
32749;DHT22;19119;52.474;13.710;2023-03-01T07:25:37;-2.40;99.90
32749;DHT22;19119;52.474;13.710;2023-03-01T07:28:05;-2.20;99.90
32749;DHT22;19119;52.474;13.710;2023-03-01T07:30:31;-2.00;99.90
32749;DHT22;19119;52.474;13.710;2023-03-01T07:32:57;-1.80;99.90
32749;DHT22;19119;52.474;13.710;2023-03-01T07:35:23;-1.60;99.90
32749;DHT22;19119;52.474;13.710;2023-03-01T07:37:51;-1.40;99.90
32749;DHT22;19119;52.474;13.710;2023-03-01T07:40:17;-1.30;99.90
32749;DHT22;19119;52.474;13.710;2023-03-01T07:42:42;-1.00;99.90
32749;DHT22;19119;52.474;13.710;2023-03-01T07:45:08;-0.90;99.90
32749;DHT22;19119;52.474;13.710;2023-03-01T07:47:34;-0.70;99.90
32749;DHT22;19119;52.474;13.710;2023-03-01T07:49:59;-0.70;99.90
32749;DHT22;19119;52.474;13.710;2023-03-01T07:52:26;-0.60;99.90
32749;DHT22;19119;52.474;13.710;2023-03-01T07:54:51;-0.40;99.90
32749;DHT22;19119;52.474;13.710;2023-03-01T07:57:17;-0.20;99.90
32749;DHT22;19119;52.474;13.710;2023-03-01T07:59:42;-0.10;99.90
32749;DHT22;19119;52.474;13.710;2023-03-01T08:02:08;0.10;99.90
32749;DHT22;19119;52.474;13.710;2023-03-01T08:04:34;0.40;99.90
32749;DHT22;19119;52.474;13.710;2023-03-01T08:07:00;0.60;99.90
32749;DHT22;19119;52.474;13.710;2023-03-01T08:09:25;0.90;99.90
32749;DHT22;19119;52.474;13.710;2023-03-01T08:11:51;1.30;99.90
32749;DHT22;19119;52.474;13.710;2023-03-01T08:14:16;1.50;99.90
32749;DHT22;19119;52.474;13.710;2023-03-01T08:16:41;1.60;99.90
32749;DHT22;19119;52.474;13.710;2023-03-01T08:19:08;1.70;99.90
32749;DHT22;19119;52.474;13.710;2023-03-01T08:21:41;2.00;99.90
32749;DHT22;19119;52.474;13.710;2023-03-01T08:24:07;2.50;99.90
32749;DHT22;19119;52.474;13.710;2023-03-01T08:26:34;2.80;99.90
32749;DHT22;19119;52.474;13.710;2023-03-01T08:29:00;2.60;99.90
32749;DHT22;19119;52.474;13.710;2023-03-01T08:31:31;2.80;99.90
32749;DHT22;19119;52.474;13.710;2023-03-01T08:34:01;3.50;99.90
32749;DHT22;19119;52.474;13.710;2023-03-01T08:36:32;4.00;99.90
32749;DHT22;19119;52.474;13.710;2023-03-01T08:38:59;4.50;99.90
32749;DHT22;19119;52.474;13.710;2023-03-01T08:41:25;4.80;99.90
32749;DHT22;19119;52.474;13.710;2023-03-01T08:43:50;5.30;99.90
32749;DHT22;19119;52.474;13.710;2023-03-01T08:46:37;5.60;99.90
32749;DHT22;19119;52.474;13.710;2023-03-01T08:49:05;6.00;99.90
32749;DHT22;19119;52.474;13.710;2023-03-01T08:51:30;6.30;99.90
32749;DHT22;19119;52.474;13.710;2023-03-01T08:54:04;6.60;99.90
32749;DHT22;19119;52.474;13.710;2023-03-01T08:56:31;6.80;99.90
32749;DHT22;19119;52.474;13.710;2023-03-01T08:58:56;6.40;99.90
32749;DHT22;19119;52.474;13.710;2023-03-01T09:01:22;6.40;99.90
32749;DHT22;19119;52.474;13.710;2023-03-01T09:03:48;6.80;99.90
32749;DHT22;19119;52.474;13.710;2023-03-01T09:06:14;6.80;99.90
32749;DHT22;19119;52.474;13.710;2023-03-01T09:08:43;6.80;99.90
32749;DHT22;19119;52.474;13.710;2023-03-01T09:11:11;6.80;99.90
32749;DHT22;19119;52.474;13.710;2023-03-01T09:13:37;6.60;99.90
32749;DHT22;19119;52.474;13.710;2023-03-01T09:16:05;6.30;99.90
32749;DHT22;19119;52.474;13.710;2023-03-01T09:18:32;6.70;99.90
32749;DHT22;19119;52.474;13.710;2023-03-01T09:21:17;7.30;99.90
32749;DHT22;19119;52.474;13.710;2023-03-01T09:23:45;7.80;99.90
32749;DHT22;19119;52.474;13.710;2023-03-01T09:26:22;8.00;99.90
32749;DHT22;19119;52.474;13.710;2023-03-01T09:28:51;8.20;99.90
32749;DHT22;19119;52.474;13.710;2023-03-01T09:31:19;8.60;99.90
32749;DHT22;19119;52.474;13.710;2023-03-01T09:33:47;8.50;99.90
32749;DHT22;19119;52.474;13.710;2023-03-01T09:36:19;8.50;99.90
32749;DHT22;19119;52.474;13.710;2023-03-01T09:38:44;8.10;99.90
32749;DHT22;19119;52.474;13.710;2023-03-01T09:41:53;7.60;99.90
32749;DHT22;19119;52.474;13.710;2023-03-01T09:47:00;7.90;99.90
32749;DHT22;19119;52.474;13.710;2023-03-01T09:49:33;7.20;99.90
32749;DHT22;19119;52.474;13.710;2023-03-01T09:55:13;8.20;99.90
32749;DHT22;19119;52.474;13.710;2023-03-01T09:57:47;8.60;99.90
32749;DHT22;19119;52.474;13.710;2023-03-01T10:02:52;7.80;99.90
32749;DHT22;19119;52.474;13.710;2023-03-01T10:05:41;8.50;99.90
32749;DHT22;19119;52.474;13.710;2023-03-01T10:11:32;8.80;99.90
32749;DHT22;19119;52.474;13.710;2023-03-01T10:13:59;8.50;99.90
32749;DHT22;19119;52.474;13.710;2023-03-01T10:19:11;8.70;99.90
32749;DHT22;19119;52.474;13.710;2023-03-01T10:21:43;8.50;99.90
32749;DHT22;19119;52.474;13.710;2023-03-01T10:24:18;8.80;99.90
32749;DHT22;19119;52.474;13.710;2023-03-01T10:26:56;9.30;99.90
32749;DHT22;19119;52.474;13.710;2023-03-01T10:29:29;9.10;99.90
32749;DHT22;19119;52.474;13.710;2023-03-01T10:31:56;8.90;99.90
32749;DHT22;19119;52.474;13.710;2023-03-01T10:34:33;8.60;99.90
32749;DHT22;19119;52.474;13.710;2023-03-01T10:37:13;9.20;99.90
32749;DHT22;19119;52.474;13.710;2023-03-01T10:39:55;9.70;99.90
32749;DHT22;19119;52.474;13.710;2023-03-01T10:42:30;9.50;99.40
32749;DHT22;19119;52.474;13.710;2023-03-01T10:44:56;9.80;99.40
32749;DHT22;19119;52.474;13.710;2023-03-01T10:47:42;9.60;98.90
32749;DHT22;19119;52.474;13.710;2023-03-01T10:50:23;9.50;98.80
32749;DHT22;19119;52.474;13.710;2023-03-01T10:53:00;9.50;99.00
32749;DHT22;19119;52.474;13.710;2023-03-01T10:55:37;9.70;99.60
32749;DHT22;19119;52.474;13.710;2023-03-01T10:58:19;9.90;98.80
32749;DHT22;19119;52.474;13.710;2023-03-01T11:01:00;9.20;97.70
32749;DHT22;19119;52.474;13.710;2023-03-01T11:08:41;9.80;97.40
32749;DHT22;19119;52.474;13.710;2023-03-01T11:11:32;9.40;97.20
32749;DHT22;19119;52.474;13.710;2023-03-01T11:14:01;9.70;98.00
32749;DHT22;19119;52.474;13.710;2023-03-01T11:16:39;9.80;96.80
32749;DHT22;19119;52.474;13.710;2023-03-01T11:21:39;10.50;95.70
32749;DHT22;19119;52.474;13.710;2023-03-01T11:24:10;10.50;95.70
32749;DHT22;19119;52.474;13.710;2023-03-01T11:26:39;11.00;95.90
32749;DHT22;19119;52.474;13.710;2023-03-01T11:29:17;10.20;95.40
32749;DHT22;19119;52.474;13.710;2023-03-01T11:31:47;10.10;94.90
32749;DHT22;19119;52.474;13.710;2023-03-01T11:34:17;9.90;94.70
32749;DHT22;19119;52.474;13.710;2023-03-01T11:36:56;10.40;96.20
32749;DHT22;19119;52.474;13.710;2023-03-01T11:39:37;9.40;94.60
32749;DHT22;19119;52.474;13.710;2023-03-01T11:45:08;10.80;94.00
32749;DHT22;19119;52.474;13.710;2023-03-01T11:47:48;10.90;93.70
32749;DHT22;19119;52.474;13.710;2023-03-01T11:50:33;10.60;93.60
32749;DHT22;19119;52.474;13.710;2023-03-01T11:56:02;11.20;94.20
32749;DHT22;19119;52.474;13.710;2023-03-01T11:58:52;10.10;94.00
32749;DHT22;19119;52.474;13.710;2023-03-01T12:01:31;11.00;93.40
32749;DHT22;19119;52.474;13.710;2023-03-01T12:09:52;10.40;94.50
32749;DHT22;19119;52.474;13.710;2023-03-01T12:12:27;10.50;94.40
32749;DHT22;19119;52.474;13.710;2023-03-01T12:21:02;11.60;94.30
32749;DHT22;19119;52.474;13.710;2023-03-01T12:29:22;11.70;93.60
32749;DHT22;19119;52.474;13.710;2023-03-01T12:37:17;12.50;93.80
32749;DHT22;19119;52.474;13.710;2023-03-01T12:40:01;12.70;93.30
32749;DHT22;19119;52.474;13.710;2023-03-01T12:42:44;13.20;93.00
32749;DHT22;19119;52.474;13.710;2023-03-01T12:45:31;12.90;91.00
32749;DHT22;19119;52.474;13.710;2023-03-01T12:48:12;12.00;92.00
32749;DHT22;19119;52.474;13.710;2023-03-01T12:50:52;11.70;92.40
32749;DHT22;19119;52.474;13.710;2023-03-01T12:53:26;12.20;92.30
32749;DHT22;19119;52.474;13.710;2023-03-01T12:55:54;12.10;92.10
32749;DHT22;19119;52.474;13.710;2023-03-01T13:01:11;10.90;91.50
32749;DHT22;19119;52.474;13.710;2023-03-01T13:09:30;11.00;91.30
32749;DHT22;19119;52.474;13.710;2023-03-01T13:11:59;11.10;91.20
32749;DHT22;19119;52.474;13.710;2023-03-01T13:16:56;11.30;90.80
32749;DHT22;19119;52.474;13.710;2023-03-01T13:19:26;12.40;91.00
32749;DHT22;19119;52.474;13.710;2023-03-01T13:21:57;13.10;90.30
32749;DHT22;19119;52.474;13.710;2023-03-01T13:24:38;13.20;89.40
32749;DHT22;19119;52.474;13.710;2023-03-01T13:29:53;13.40;88.90
32749;DHT22;19119;52.474;13.710;2023-03-01T13:34:47;14.20;88.50
32749;DHT22;19119;52.474;13.710;2023-03-01T13:37:25;14.30;88.20
32749;DHT22;19119;52.474;13.710;2023-03-01T13:39:51;15.50;88.10
32749;DHT22;19119;52.474;13.710;2023-03-01T13:44:57;15.70;86.40
32749;DHT22;19119;52.474;13.710;2023-03-01T13:47:23;14.60;87.20
32749;DHT22;19119;52.474;13.710;2023-03-01T13:49:57;15.90;87.30
32749;DHT22;19119;52.474;13.710;2023-03-01T13:52:42;16.70;87.30
32749;DHT22;19119;52.474;13.710;2023-03-01T13:57:43;15.90;88.00
32749;DHT22;19119;52.474;13.710;2023-03-01T14:05:33;15.90;86.50
32749;DHT22;19119;52.474;13.710;2023-03-01T14:07:58;16.20;87.70
32749;DHT22;19119;52.474;13.710;2023-03-01T14:10:32;13.30;87.20
32749;DHT22;19119;52.474;13.710;2023-03-01T14:13:31;12.20;88.60
32749;DHT22;19119;52.474;13.710;2023-03-01T14:21:33;9.90;91.50
32749;DHT22;19119;52.474;13.710;2023-03-01T14:23:58;10.50;91.60
32749;DHT22;19119;52.474;13.710;2023-03-01T14:26:24;11.80;91.10
32749;DHT22;19119;52.474;13.710;2023-03-01T14:28:51;14.40;90.70
32749;DHT22;19119;52.474;13.710;2023-03-01T14:31:44;16.10;90.00
32749;DHT22;19119;52.474;13.710;2023-03-01T14:34:20;18.10;89.80
32749;DHT22;19119;52.474;13.710;2023-03-01T14:36:46;19.10;87.70
32749;DHT22;19119;52.474;13.710;2023-03-01T14:39:25;19.30;86.90
32749;DHT22;19119;52.474;13.710;2023-03-01T14:41:54;18.30;87.10
32749;DHT22;19119;52.474;13.710;2023-03-01T14:44:22;18.80;86.20
32749;DHT22;19119;52.474;13.710;2023-03-01T14:46:53;18.30;85.60
32749;DHT22;19119;52.474;13.710;2023-03-01T14:49:23;18.50;85.50
32749;DHT22;19119;52.474;13.710;2023-03-01T14:52:00;19.50;84.60
32749;DHT22;19119;52.474;13.710;2023-03-01T14:54:37;17.90;83.90
32749;DHT22;19119;52.474;13.710;2023-03-01T14:57:05;17.60;86.10
32749;DHT22;19119;52.474;13.710;2023-03-01T14:59:33;15.60;84.90
32749;DHT22;19119;52.474;13.710;2023-03-01T15:02:00;13.90;86.10
32749;DHT22;19119;52.474;13.710;2023-03-01T15:04:28;13.70;86.70
32749;DHT22;19119;52.474;13.710;2023-03-01T15:06:55;12.60;87.70
32749;DHT22;19119;52.474;13.710;2023-03-01T15:09:30;11.50;87.90
32749;DHT22;19119;52.474;13.710;2023-03-01T15:11:57;11.20;88.80
32749;DHT22;19119;52.474;13.710;2023-03-01T15:14:40;10.40;89.10
32749;DHT22;19119;52.474;13.710;2023-03-01T15:17:32;10.20;90.00
32749;DHT22;19119;52.474;13.710;2023-03-01T15:20:03;9.80;90.20
32749;DHT22;19119;52.474;13.710;2023-03-01T15:22:30;9.70;90.50
32749;DHT22;19119;52.474;13.710;2023-03-01T15:24:55;9.20;90.40
32749;DHT22;19119;52.474;13.710;2023-03-01T15:27:23;9.10;90.70
32749;DHT22;19119;52.474;13.710;2023-03-01T15:29:59;9.10;90.40
32749;DHT22;19119;52.474;13.710;2023-03-01T15:32:36;9.10;90.80
32749;DHT22;19119;52.474;13.710;2023-03-01T15:35:40;8.90;90.40
32749;DHT22;19119;52.474;13.710;2023-03-01T15:40:59;8.60;90.80
32749;DHT22;19119;52.474;13.710;2023-03-01T15:43:45;8.60;90.90
32749;DHT22;19119;52.474;13.710;2023-03-01T15:46:19;8.40;90.50
32749;DHT22;19119;52.474;13.710;2023-03-01T15:48:50;8.40;90.40
32749;DHT22;19119;52.474;13.710;2023-03-01T15:51:20;8.30;90.50
32749;DHT22;19119;52.474;13.710;2023-03-01T15:53:52;8.20;90.70
32749;DHT22;19119;52.474;13.710;2023-03-01T15:56:18;8.30;91.30
32749;DHT22;19119;52.474;13.710;2023-03-01T15:58:44;8.20;91.60
32749;DHT22;19119;52.474;13.710;2023-03-01T16:01:18;8.10;91.80
32749;DHT22;19119;52.474;13.710;2023-03-01T16:03:45;8.00;92.20
32749;DHT22;19119;52.474;13.710;2023-03-01T16:06:11;8.10;92.60
32749;DHT22;19119;52.474;13.710;2023-03-01T16:08:40;8.10;93.20
32749;DHT22;19119;52.474;13.710;2023-03-01T16:11:16;8.10;93.20
32749;DHT22;19119;52.474;13.710;2023-03-01T16:13:43;8.00;93.60
32749;DHT22;19119;52.474;13.710;2023-03-01T16:16:13;8.10;93.70
32749;DHT22;19119;52.474;13.710;2023-03-01T16:18:45;8.10;94.10
32749;DHT22;19119;52.474;13.710;2023-03-01T16:21:20;8.00;94.00
32749;DHT22;19119;52.474;13.710;2023-03-01T16:23:46;8.00;94.10
32749;DHT22;19119;52.474;13.710;2023-03-01T16:26:12;7.80;94.40
32749;DHT22;19119;52.474;13.710;2023-03-01T16:28:39;7.80;94.80
32749;DHT22;19119;52.474;13.710;2023-03-01T16:31:05;7.70;95.00
32749;DHT22;19119;52.474;13.710;2023-03-01T16:33:31;7.60;95.50
32749;DHT22;19119;52.474;13.710;2023-03-01T16:35:57;7.50;95.40
32749;DHT22;19119;52.474;13.710;2023-03-01T16:38:23;7.30;95.60
32749;DHT22;19119;52.474;13.710;2023-03-01T16:40:51;7.10;95.90
32749;DHT22;19119;52.474;13.710;2023-03-01T16:43:17;7.00;96.10
32749;DHT22;19119;52.474;13.710;2023-03-01T16:45:42;6.80;96.20
32749;DHT22;19119;52.474;13.710;2023-03-01T16:48:10;6.80;96.70
32749;DHT22;19119;52.474;13.710;2023-03-01T16:50:36;6.60;96.90
32749;DHT22;19119;52.474;13.710;2023-03-01T16:53:02;6.50;97.30
32749;DHT22;19119;52.474;13.710;2023-03-01T16:55:27;6.30;97.90
32749;DHT22;19119;52.474;13.710;2023-03-01T16:57:53;6.20;97.90
32749;DHT22;19119;52.474;13.710;2023-03-01T17:00:19;6.10;98.30
32749;DHT22;19119;52.474;13.710;2023-03-01T17:02:49;5.90;98.50
32749;DHT22;19119;52.474;13.710;2023-03-01T17:05:14;5.70;98.70
32749;DHT22;19119;52.474;13.710;2023-03-01T17:07:40;5.70;98.60
32749;DHT22;19119;52.474;13.710;2023-03-01T17:10:08;5.60;98.50
32749;DHT22;19119;52.474;13.710;2023-03-01T17:12:34;5.50;98.60
32749;DHT22;19119;52.474;13.710;2023-03-01T17:15:00;5.50;98.50